sensor_id;sensor_type;location;lat;lon;timestamp;P1;durP1;ratioP1;P2;durP2;ratioP2
78834;SDS011;68187;42.682;23.352;2024-02-28T00:01:11;19.10;;;10.35;;
78834;SDS011;68187;42.682;23.352;2024-02-28T00:03:38;23.55;;;11.57;;
78834;SDS011;68187;42.682;23.352;2024-02-28T00:06:04;21.58;;;11.45;;
78834;SDS011;68187;42.682;23.352;2024-02-28T00:08:31;19.83;;;11.30;;
78834;SDS011;68187;42.682;23.352;2024-02-28T00:10:58;18.60;;;11.68;;
78834;SDS011;68187;42.682;23.352;2024-02-28T00:13:25;19.60;;;13.88;;
78834;SDS011;68187;42.682;23.352;2024-02-28T00:15:53;23.48;;;11.60;;
78834;SDS011;68187;42.682;23.352;2024-02-28T00:18:20;22.95;;;11.35;;
78834;SDS011;68187;42.682;23.352;2024-02-28T00:20:47;18.98;;;13.30;;
78834;SDS011;68187;42.682;23.352;2024-02-28T00:23:14;24.70;;;12.23;;
78834;SDS011;68187;42.682;23.352;2024-02-28T00:25:41;17.48;;;10.93;;
78834;SDS011;68187;42.682;23.352;2024-02-28T00:28:09;22.45;;;12.65;;
78834;SDS011;68187;42.682;23.352;2024-02-28T00:30:35;19.10;;;11.27;;
78834;SDS011;68187;42.682;23.352;2024-02-28T00:33:04;19.85;;;12.23;;
78834;SDS011;68187;42.682;23.352;2024-02-28T00:35:31;21.33;;;11.43;;
78834;SDS011;68187;42.682;23.352;2024-02-28T00:37:59;20.40;;;11.93;;
78834;SDS011;68187;42.682;23.352;2024-02-28T00:40:26;21.80;;;13.00;;
78834;SDS011;68187;42.682;23.352;2024-02-28T00:42:53;21.67;;;12.05;;
78834;SDS011;68187;42.682;23.352;2024-02-28T00:45:20;20.15;;;12.80;;
78834;SDS011;68187;42.682;23.352;2024-02-28T00:47:47;22.77;;;12.50;;
78834;SDS011;68187;42.682;23.352;2024-02-28T00:50:15;20.55;;;15.02;;
78834;SDS011;68187;42.682;23.352;2024-02-28T00:52:42;21.52;;;12.10;;
78834;SDS011;68187;42.682;23.352;2024-02-28T00:55:09;20.95;;;11.05;;
78834;SDS011;68187;42.682;23.352;2024-02-28T00:57:36;19.45;;;12.25;;
78834;SDS011;68187;42.682;23.352;2024-02-28T01:00:04;23.30;;;12.93;;
78834;SDS011;68187;42.682;23.352;2024-02-28T01:02:31;20.08;;;11.30;;
78834;SDS011;68187;42.682;23.352;2024-02-28T01:04:58;22.42;;;12.85;;
78834;SDS011;68187;42.682;23.352;2024-02-28T01:07:27;25.95;;;13.00;;
78834;SDS011;68187;42.682;23.352;2024-02-28T01:09:54;25.70;;;15.95;;
78834;SDS011;68187;42.682;23.352;2024-02-28T01:12:21;20.77;;;11.70;;
78834;SDS011;68187;42.682;23.352;2024-02-28T01:14:48;23.90;;;13.45;;
78834;SDS011;68187;42.682;23.352;2024-02-28T01:17:15;19.63;;;13.15;;
78834;SDS011;68187;42.682;23.352;2024-02-28T01:19:42;23.92;;;13.57;;
78834;SDS011;68187;42.682;23.352;2024-02-28T01:22:09;21.50;;;14.73;;
78834;SDS011;68187;42.682;23.352;2024-02-28T01:24:37;21.63;;;12.23;;
78834;SDS011;68187;42.682;23.352;2024-02-28T01:27:04;28.13;;;14.10;;
78834;SDS011;68187;42.682;23.352;2024-02-28T01:29:31;25.42;;;14.10;;
78834;SDS011;68187;42.682;23.352;2024-02-28T01:31:58;22.63;;;12.45;;
78834;SDS011;68187;42.682;23.352;2024-02-28T01:34:25;23.45;;;13.90;;
78834;SDS011;68187;42.682;23.352;2024-02-28T01:36:52;25.92;;;11.95;;
78834;SDS011;68187;42.682;23.352;2024-02-28T01:39:18;23.23;;;13.40;;
78834;SDS011;68187;42.682;23.352;2024-02-28T01:41:52;21.13;;;11.52;;
78834;SDS011;68187;42.682;23.352;2024-02-28T01:44:19;27.70;;;13.25;;
78834;SDS011;68187;42.682;23.352;2024-02-28T01:46:46;25.92;;;13.48;;
78834;SDS011;68187;42.682;23.352;2024-02-28T01:49:13;23.20;;;13.23;;
78834;SDS011;68187;42.682;23.352;2024-02-28T01:51:42;18.40;;;13.05;;
78834;SDS011;68187;42.682;23.352;2024-02-28T01:54:11;22.80;;;12.15;;
78834;SDS011;68187;42.682;23.352;2024-02-28T01:56:38;24.30;;;13.90;;
78834;SDS011;68187;42.682;23.352;2024-02-28T01:59:07;23.20;;;14.02;;
78834;SDS011;68187;42.682;23.352;2024-02-28T02:01:37;24.45;;;14.32;;
78834;SDS011;68187;42.682;23.352;2024-02-28T02:04:04;25.30;;;14.95;;
78834;SDS011;68187;42.682;23.352;2024-02-28T02:06:31;25.40;;;15.57;;
78834;SDS011;68187;42.682;23.352;2024-02-28T02:08:58;25.63;;;14.23;;
78834;SDS011;68187;42.682;23.352;2024-02-28T02:11:25;27.65;;;13.82;;
78834;SDS011;68187;42.682;23.352;2024-02-28T02:13:53;26.45;;;16.55;;
78834;SDS011;68187;42.682;23.352;2024-02-28T02:16:21;25.25;;;16.17;;
78834;SDS011;68187;42.682;23.352;2024-02-28T02:18:51;25.85;;;15.75;;
78834;SDS011;68187;42.682;23.352;2024-02-28T02:21:18;29.90;;;15.82;;
78834;SDS011;68187;42.682;23.352;2024-02-28T02:23:49;25.60;;;15.25;;
78834;SDS011;68187;42.682;23.352;2024-02-28T02:26:16;31.20;;;15.20;;
78834;SDS011;68187;42.682;23.352;2024-02-28T02:28:43;27.77;;;14.32;;
78834;SDS011;68187;42.682;23.352;2024-02-28T02:31:11;24.58;;;14.75;;
78834;SDS011;68187;42.682;23.352;2024-02-28T02:33:38;24.42;;;14.18;;
78834;SDS011;68187;42.682;23.352;2024-02-28T02:36:05;29.02;;;15.60;;
78834;SDS011;68187;42.682;23.352;2024-02-28T02:38:32;27.30;;;16.02;;
78834;SDS011;68187;42.682;23.352;2024-02-28T02:41:00;27.75;;;14.45;;
78834;SDS011;68187;42.682;23.352;2024-02-28T02:43:27;24.92;;;14.85;;
78834;SDS011;68187;42.682;23.352;2024-02-28T02:45:54;27.17;;;16.77;;
78834;SDS011;68187;42.682;23.352;2024-02-28T02:48:21;28.83;;;15.25;;
78834;SDS011;68187;42.682;23.352;2024-02-28T02:50:48;32.03;;;14.80;;
78834;SDS011;68187;42.682;23.352;2024-02-28T02:53:14;23.67;;;14.20;;
78834;SDS011;68187;42.682;23.352;2024-02-28T02:55:41;25.98;;;15.32;;
78834;SDS011;68187;42.682;23.352;2024-02-28T02:58:10;25.58;;;15.45;;
78834;SDS011;68187;42.682;23.352;2024-02-28T03:00:36;27.10;;;14.93;;
78834;SDS011;68187;42.682;23.352;2024-02-28T03:03:04;25.48;;;14.75;;
78834;SDS011;68187;42.682;23.352;2024-02-28T03:05:32;27.73;;;15.50;;
78834;SDS011;68187;42.682;23.352;2024-02-28T03:07:59;23.02;;;13.55;;
78834;SDS011;68187;42.682;23.352;2024-02-28T03:10:25;26.23;;;14.52;;
78834;SDS011;68187;42.682;23.352;2024-02-28T03:12:52;22.13;;;13.90;;
78834;SDS011;68187;42.682;23.352;2024-02-28T03:15:21;26.42;;;17.08;;
78834;SDS011;68187;42.682;23.352;2024-02-28T03:17:47;28.00;;;17.73;;
78834;SDS011;68187;42.682;23.352;2024-02-28T03:20:14;26.70;;;16.58;;
78834;SDS011;68187;42.682;23.352;2024-02-28T03:22:41;31.25;;;16.00;;
78834;SDS011;68187;42.682;23.352;2024-02-28T03:25:09;25.60;;;14.13;;
78834;SDS011;68187;42.682;23.352;2024-02-28T03:27:36;27.88;;;15.82;;
78834;SDS011;68187;42.682;23.352;2024-02-28T03:30:03;24.05;;;14.13;;
78834;SDS011;68187;42.682;23.352;2024-02-28T03:32:33;27.00;;;14.95;;
78834;SDS011;68187;42.682;23.352;2024-02-28T03:34:59;26.92;;;15.73;;
78834;SDS011;68187;42.682;23.352;2024-02-28T03:37:26;29.92;;;16.58;;
78834;SDS011;68187;42.682;23.352;2024-02-28T03:39:53;30.02;;;17.50;;
78834;SDS011;68187;42.682;23.352;2024-02-28T03:42:20;29.83;;;16.88;;
78834;SDS011;68187;42.682;23.352;2024-02-28T03:44:47;28.95;;;13.88;;
78834;SDS011;68187;42.682;23.352;2024-02-28T03:47:14;29.02;;;18.90;;
78834;SDS011;68187;42.682;23.352;2024-02-28T03:49:42;26.20;;;14.63;;
78834;SDS011;68187;42.682;23.352;2024-02-28T03:52:09;26.33;;;15.82;;
78834;SDS011;68187;42.682;23.352;2024-02-28T03:54:38;26.00;;;16.30;;
78834;SDS011;68187;42.682;23.352;2024-02-28T03:57:08;28.70;;;15.55;;
78834;SDS011;68187;42.682;23.352;2024-02-28T04:02:00;25.30;;;14.55;;
78834;SDS011;68187;42.682;23.352;2024-02-28T04:04:27;27.73;;;16.00;;
78834;SDS011;68187;42.682;23.352;2024-02-28T04:06:55;28.52;;;14.00;;
78834;SDS011;68187;42.682;23.352;2024-02-28T04:09:22;26.80;;;14.88;;
78834;SDS011;68187;42.682;23.352;2024-02-28T04:11:49;31.13;;;16.45;;
78834;SDS011;68187;42.682;23.352;2024-02-28T04:14:16;30.55;;;16.17;;
78834;SDS011;68187;42.682;23.352;2024-02-28T04:16:43;28.50;;;16.77;;
78834;SDS011;68187;42.682;23.352;2024-02-28T04:19:10;27.38;;;16.17;;
78834;SDS011;68187;42.682;23.352;2024-02-28T04:21:38;28.13;;;14.40;;
78834;SDS011;68187;42.682;23.352;2024-02-28T04:24:07;26.45;;;13.82;;
78834;SDS011;68187;42.682;23.352;2024-02-28T04:26:34;31.08;;;16.40;;
78834;SDS011;68187;42.682;23.352;2024-02-28T04:29:01;25.77;;;15.35;;
78834;SDS011;68187;42.682;23.352;2024-02-28T04:31:30;27.25;;;17.63;;
78834;SDS011;68187;42.682;23.352;2024-02-28T04:33:57;26.77;;;16.73;;
78834;SDS011;68187;42.682;23.352;2024-02-28T04:36:24;25.20;;;13.70;;
78834;SDS011;68187;42.682;23.352;2024-02-28T04:38:51;28.92;;;15.48;;
78834;SDS011;68187;42.682;23.352;2024-02-28T04:41:19;30.48;;;16.52;;
78834;SDS011;68187;42.682;23.352;2024-02-28T04:43:46;26.98;;;14.80;;
78834;SDS011;68187;42.682;23.352;2024-02-28T04:46:13;35.63;;;17.13;;
78834;SDS011;68187;42.682;23.352;2024-02-28T04:48:39;34.15;;;19.77;;
78834;SDS011;68187;42.682;23.352;2024-02-28T04:51:06;30.45;;;16.83;;
78834;SDS011;68187;42.682;23.352;2024-02-28T04:53:33;27.60;;;16.95;;
78834;SDS011;68187;42.682;23.352;2024-02-28T04:56:00;33.22;;;17.50;;
78834;SDS011;68187;42.682;23.352;2024-02-28T04:58:28;28.23;;;16.83;;
78834;SDS011;68187;42.682;23.352;2024-02-28T05:00:55;32.15;;;17.38;;
78834;SDS011;68187;42.682;23.352;2024-02-28T05:03:22;29.45;;;16.77;;
78834;SDS011;68187;42.682;23.352;2024-02-28T05:05:50;30.83;;;16.98;;
78834;SDS011;68187;42.682;23.352;2024-02-28T05:08:17;29.10;;;17.38;;
78834;SDS011;68187;42.682;23.352;2024-02-28T05:10:45;34.50;;;16.55;;
78834;SDS011;68187;42.682;23.352;2024-02-28T05:13:12;29.40;;;19.42;;
78834;SDS011;68187;42.682;23.352;2024-02-28T05:15:41;26.15;;;14.95;;
78834;SDS011;68187;42.682;23.352;2024-02-28T05:18:08;30.73;;;17.58;;
78834;SDS011;68187;42.682;23.352;2024-02-28T05:20:35;30.20;;;18.98;;
78834;SDS011;68187;42.682;23.352;2024-02-28T05:23:01;29.10;;;16.95;;
78834;SDS011;68187;42.682;23.352;2024-02-28T05:25:28;31.23;;;16.05;;
78834;SDS011;68187;42.682;23.352;2024-02-28T05:27:55;29.60;;;15.82;;
78834;SDS011;68187;42.682;23.352;2024-02-28T05:30:22;30.35;;;17.15;;
78834;SDS011;68187;42.682;23.352;2024-02-28T05:32:50;31.83;;;17.52;;
78834;SDS011;68187;42.682;23.352;2024-02-28T05:35:17;31.67;;;16.98;;
78834;SDS011;68187;42.682;23.352;2024-02-28T05:37:44;29.98;;;16.95;;
78834;SDS011;68187;42.682;23.352;2024-02-28T05:40:12;29.08;;;17.38;;
78834;SDS011;68187;42.682;23.352;2024-02-28T05:42:39;32.20;;;17.17;;
78834;SDS011;68187;42.682;23.352;2024-02-28T05:45:08;35.30;;;20.25;;
78834;SDS011;68187;42.682;23.352;2024-02-28T05:47:35;31.63;;;17.80;;
78834;SDS011;68187;42.682;23.352;2024-02-28T05:50:04;32.10;;;17.73;;
78834;SDS011;68187;42.682;23.352;2024-02-28T05:52:32;31.65;;;18.48;;
78834;SDS011;68187;42.682;23.352;2024-02-28T05:54:59;33.45;;;21.90;;
78834;SDS011;68187;42.682;23.352;2024-02-28T05:57:26;32.03;;;18.77;;
78834;SDS011;68187;42.682;23.352;2024-02-28T05:59:53;31.23;;;17.13;;
78834;SDS011;68187;42.682;23.352;2024-02-28T06:02:20;30.10;;;16.83;;
78834;SDS011;68187;42.682;23.352;2024-02-28T06:04:47;34.85;;;16.50;;
78834;SDS011;68187;42.682;23.352;2024-02-28T06:07:15;33.58;;;16.10;;
78834;SDS011;68187;42.682;23.352;2024-02-28T06:09:42;34.95;;;18.90;;
78834;SDS011;68187;42.682;23.352;2024-02-28T06:12:09;27.63;;;17.70;;
78834;SDS011;68187;42.682;23.352;2024-02-28T06:14:35;30.25;;;16.48;;
78834;SDS011;68187;42.682;23.352;2024-02-28T06:17:02;32.75;;;18.48;;
78834;SDS011;68187;42.682;23.352;2024-02-28T06:19:29;30.30;;;18.42;;
78834;SDS011;68187;42.682;23.352;2024-02-28T06:21:56;34.80;;;19.35;;
78834;SDS011;68187;42.682;23.352;2024-02-28T06:24:24;34.42;;;19.52;;
78834;SDS011;68187;42.682;23.352;2024-02-28T06:26:51;31.77;;;18.30;;
78834;SDS011;68187;42.682;23.352;2024-02-28T06:29:18;33.83;;;19.48;;
78834;SDS011;68187;42.682;23.352;2024-02-28T06:31:49;28.23;;;16.83;;
78834;SDS011;68187;42.682;23.352;2024-02-28T06:34:16;34.35;;;18.13;;
78834;SDS011;68187;42.682;23.352;2024-02-28T06:36:43;27.23;;;18.48;;
78834;SDS011;68187;42.682;23.352;2024-02-28T06:39:10;32.22;;;17.60;;
78834;SDS011;68187;42.682;23.352;2024-02-28T06:41:39;35.30;;;16.98;;
78834;SDS011;68187;42.682;23.352;2024-02-28T06:44:06;30.38;;;17.92;;
78834;SDS011;68187;42.682;23.352;2024-02-28T06:46:34;32.65;;;18.13;;
78834;SDS011;68187;42.682;23.352;2024-02-28T06:49:00;26.55;;;15.88;;
78834;SDS011;68187;42.682;23.352;2024-02-28T06:51:27;31.92;;;15.93;;
78834;SDS011;68187;42.682;23.352;2024-02-28T06:53:54;28.10;;;16.38;;
78834;SDS011;68187;42.682;23.352;2024-02-28T06:56:21;27.23;;;14.90;;
78834;SDS011;68187;42.682;23.352;2024-02-28T06:58:49;27.45;;;17.80;;
78834;SDS011;68187;42.682;23.352;2024-02-28T07:01:17;31.30;;;17.05;;
78834;SDS011;68187;42.682;23.352;2024-02-28T07:03:44;28.38;;;16.02;;
78834;SDS011;68187;42.682;23.352;2024-02-28T07:06:11;31.05;;;16.25;;
78834;SDS011;68187;42.682;23.352;2024-02-28T07:08:38;30.42;;;16.92;;
78834;SDS011;68187;42.682;23.352;2024-02-28T07:11:05;31.58;;;19.10;;
78834;SDS011;68187;42.682;23.352;2024-02-28T07:13:39;28.63;;;16.30;;
78834;SDS011;68187;42.682;23.352;2024-02-28T07:16:07;31.45;;;17.40;;
78834;SDS011;68187;42.682;23.352;2024-02-28T07:18:34;28.20;;;15.88;;
78834;SDS011;68187;42.682;23.352;2024-02-28T07:21:01;28.10;;;17.00;;
78834;SDS011;68187;42.682;23.352;2024-02-28T07:23:28;37.60;;;16.50;;
78834;SDS011;68187;42.682;23.352;2024-02-28T07:25:55;30.85;;;15.90;;
78834;SDS011;68187;42.682;23.352;2024-02-28T07:28:22;31.65;;;16.20;;
78834;SDS011;68187;42.682;23.352;2024-02-28T07:30:49;29.15;;;15.95;;
78834;SDS011;68187;42.682;23.352;2024-02-28T07:33:17;29.27;;;16.05;;
78834;SDS011;68187;42.682;23.352;2024-02-28T07:35:44;33.35;;;17.55;;
78834;SDS011;68187;42.682;23.352;2024-02-28T07:38:11;31.48;;;17.95;;
78834;SDS011;68187;42.682;23.352;2024-02-28T07:40:39;29.25;;;17.08;;
78834;SDS011;68187;42.682;23.352;2024-02-28T07:43:05;29.55;;;17.25;;
78834;SDS011;68187;42.682;23.352;2024-02-28T07:45:32;30.38;;;15.98;;
78834;SDS011;68187;42.682;23.352;2024-02-28T07:47:59;35.70;;;16.80;;
78834;SDS011;68187;42.682;23.352;2024-02-28T07:50:28;30.67;;;16.50;;
78834;SDS011;68187;42.682;23.352;2024-02-28T07:52:55;27.15;;;17.23;;
78834;SDS011;68187;42.682;23.352;2024-02-28T07:55:22;30.80;;;16.10;;
78834;SDS011;68187;42.682;23.352;2024-02-28T07:57:50;29.88;;;19.75;;
78834;SDS011;68187;42.682;23.352;2024-02-28T08:00:17;29.42;;;18.08;;
78834;SDS011;68187;42.682;23.352;2024-02-28T08:02:45;31.20;;;18.02;;
78834;SDS011;68187;42.682;23.352;2024-02-28T08:05:13;30.75;;;17.90;;
78834;SDS011;68187;42.682;23.352;2024-02-28T08:07:41;28.55;;;17.20;;
78834;SDS011;68187;42.682;23.352;2024-02-28T08:10:09;28.92;;;16.88;;
78834;SDS011;68187;42.682;23.352;2024-02-28T08:12:36;36.85;;;18.02;;
78834;SDS011;68187;42.682;23.352;2024-02-28T08:15:04;31.50;;;16.50;;
78834;SDS011;68187;42.682;23.352;2024-02-28T08:17:31;31.13;;;16.83;;
78834;SDS011;68187;42.682;23.352;2024-02-28T08:19:58;39.88;;;18.75;;
78834;SDS011;68187;42.682;23.352;2024-02-28T08:22:26;27.23;;;16.20;;
78834;SDS011;68187;42.682;23.352;2024-02-28T08:24:54;28.15;;;13.98;;
78834;SDS011;68187;42.682;23.352;2024-02-28T08:27:21;28.15;;;17.33;;
78834;SDS011;68187;42.682;23.352;2024-02-28T08:29:48;29.88;;;16.25;;
78834;SDS011;68187;42.682;23.352;2024-02-28T08:32:16;23.63;;;14.38;;
78834;SDS011;68187;42.682;23.352;2024-02-28T08:34:44;26.85;;;14.88;;
78834;SDS011;68187;42.682;23.352;2024-02-28T08:37:11;26.02;;;13.90;;
78834;SDS011;68187;42.682;23.352;2024-02-28T08:39:38;26.83;;;15.63;;
78834;SDS011;68187;42.682;23.352;2024-02-28T08:42:07;27.23;;;16.98;;
78834;SDS011;68187;42.682;23.352;2024-02-28T08:44:33;30.02;;;15.98;;
78834;SDS011;68187;42.682;23.352;2024-02-28T08:47:00;27.70;;;16.80;;
78834;SDS011;68187;42.682;23.352;2024-02-28T08:49:27;32.40;;;15.90;;
78834;SDS011;68187;42.682;23.352;2024-02-28T08:51:56;25.52;;;15.27;;
78834;SDS011;68187;42.682;23.352;2024-02-28T08:54:22;24.05;;;15.93;;
78834;SDS011;68187;42.682;23.352;2024-02-28T08:56:50;27.13;;;15.88;;
78834;SDS011;68187;42.682;23.352;2024-02-28T08:59:19;22.08;;;14.45;;
78834;SDS011;68187;42.682;23.352;2024-02-28T09:01:47;28.80;;;13.65;;
78834;SDS011;68187;42.682;23.352;2024-02-28T09:04:14;27.27;;;13.68;;
78834;SDS011;68187;42.682;23.352;2024-02-28T09:06:40;22.25;;;13.75;;
78834;SDS011;68187;42.682;23.352;2024-02-28T09:09:07;26.15;;;15.30;;
78834;SDS011;68187;42.682;23.352;2024-02-28T09:11:35;27.00;;;15.27;;
78834;SDS011;68187;42.682;23.352;2024-02-28T09:14:02;29.17;;;14.35;;
78834;SDS011;68187;42.682;23.352;2024-02-28T09:16:31;26.23;;;16.00;;
78834;SDS011;68187;42.682;23.352;2024-02-28T09:18:58;24.95;;;15.45;;
78834;SDS011;68187;42.682;23.352;2024-02-28T09:21:24;24.73;;;14.90;;
78834;SDS011;68187;42.682;23.352;2024-02-28T09:23:52;22.92;;;13.50;;
78834;SDS011;68187;42.682;23.352;2024-02-28T09:26:19;23.40;;;12.90;;
78834;SDS011;68187;42.682;23.352;2024-02-28T09:28:44;23.10;;;12.02;;
78834;SDS011;68187;42.682;23.352;2024-02-28T09:31:11;22.70;;;13.90;;
78834;SDS011;68187;42.682;23.352;2024-02-28T09:33:42;25.60;;;15.60;;
78834;SDS011;68187;42.682;23.352;2024-02-28T09:36:11;22.38;;;12.65;;
78834;SDS011;68187;42.682;23.352;2024-02-28T09:38:38;23.58;;;14.63;;
78834;SDS011;68187;42.682;23.352;2024-02-28T09:41:06;19.45;;;10.95;;
78834;SDS011;68187;42.682;23.352;2024-02-28T09:43:40;24.95;;;16.00;;
78834;SDS011;68187;42.682;23.352;2024-02-28T09:46:08;21.05;;;11.40;;
78834;SDS011;68187;42.682;23.352;2024-02-28T09:48:38;20.13;;;12.70;;
78834;SDS011;68187;42.682;23.352;2024-02-28T09:51:07;20.77;;;13.45;;
78834;SDS011;68187;42.682;23.352;2024-02-28T09:53:36;18.65;;;11.18;;
78834;SDS011;68187;42.682;23.352;2024-02-28T09:56:04;19.35;;;11.98;;
78834;SDS011;68187;42.682;23.352;2024-02-28T09:58:32;17.65;;;9.40;;
78834;SDS011;68187;42.682;23.352;2024-02-28T10:01:01;26.38;;;13.57;;
78834;SDS011;68187;42.682;23.352;2024-02-28T10:03:29;20.42;;;11.75;;
78834;SDS011;68187;42.682;23.352;2024-02-28T10:05:57;19.27;;;9.63;;
78834;SDS011;68187;42.682;23.352;2024-02-28T10:08:25;17.27;;;11.63;;
78834;SDS011;68187;42.682;23.352;2024-02-28T10:10:54;20.55;;;10.07;;
78834;SDS011;68187;42.682;23.352;2024-02-28T10:13:22;20.10;;;10.55;;
78834;SDS011;68187;42.682;23.352;2024-02-28T10:15:49;20.38;;;12.23;;
78834;SDS011;68187;42.682;23.352;2024-02-28T10:18:16;22.67;;;10.07;;
78834;SDS011;68187;42.682;23.352;2024-02-28T10:20:43;20.50;;;11.48;;
78834;SDS011;68187;42.682;23.352;2024-02-28T10:23:10;22.05;;;10.68;;
78834;SDS011;68187;42.682;23.352;2024-02-28T10:25:44;19.63;;;11.85;;
78834;SDS011;68187;42.682;23.352;2024-02-28T10:28:12;22.27;;;13.02;;
78834;SDS011;68187;42.682;23.352;2024-02-28T10:30:40;21.55;;;11.48;;
78834;SDS011;68187;42.682;23.352;2024-02-28T10:33:11;17.60;;;12.05;;
78834;SDS011;68187;42.682;23.352;2024-02-28T10:35:39;23.58;;;14.70;;
78834;SDS011;68187;42.682;23.352;2024-02-28T10:38:07;19.42;;;12.10;;
78834;SDS011;68187;42.682;23.352;2024-02-28T10:40:37;25.58;;;16.13;;
78834;SDS011;68187;42.682;23.352;2024-02-28T10:43:05;20.48;;;13.57;;
78834;SDS011;68187;42.682;23.352;2024-02-28T10:45:35;22.50;;;13.30;;
78834;SDS011;68187;42.682;23.352;2024-02-28T10:48:03;19.33;;;13.68;;
78834;SDS011;68187;42.682;23.352;2024-02-28T10:50:31;18.00;;;13.30;;
78834;SDS011;68187;42.682;23.352;2024-02-28T10:53:00;23.48;;;11.18;;
78834;SDS011;68187;42.682;23.352;2024-02-28T10:55:27;26.35;;;12.75;;
78834;SDS011;68187;42.682;23.352;2024-02-28T10:58:01;19.02;;;11.40;;
78834;SDS011;68187;42.682;23.352;2024-02-28T11:00:30;18.70;;;10.73;;
78834;SDS011;68187;42.682;23.352;2024-02-28T11:02:58;15.98;;;9.10;;
78834;SDS011;68187;42.682;23.352;2024-02-28T11:05:35;16.08;;;9.88;;
78834;SDS011;68187;42.682;23.352;2024-02-28T11:08:03;23.67;;;11.80;;
78834;SDS011;68187;42.682;23.352;2024-02-28T11:10:31;17.75;;;9.75;;
78834;SDS011;68187;42.682;23.352;2024-02-28T11:12:58;19.02;;;9.52;;
78834;SDS011;68187;42.682;23.352;2024-02-28T11:15:25;15.80;;;9.02;;
78834;SDS011;68187;42.682;23.352;2024-02-28T11:17:54;15.93;;;11.43;;
78834;SDS011;68187;42.682;23.352;2024-02-28T11:20:32;16.13;;;9.80;;
78834;SDS011;68187;42.682;23.352;2024-02-28T11:23:00;15.82;;;9.73;;
78834;SDS011;68187;42.682;23.352;2024-02-28T11:25:27;15.98;;;8.82;;
78834;SDS011;68187;42.682;23.352;2024-02-28T11:27:54;14.02;;;10.43;;
78834;SDS011;68187;42.682;23.352;2024-02-28T11:30:21;16.42;;;10.75;;
78834;SDS011;68187;42.682;23.352;2024-02-28T11:32:51;15.40;;;10.13;;
78834;SDS011;68187;42.682;23.352;2024-02-28T11:35:22;12.85;;;7.47;;
78834;SDS011;68187;42.682;23.352;2024-02-28T11:37:49;15.98;;;7.25;;
78834;SDS011;68187;42.682;23.352;2024-02-28T11:40:19;12.98;;;8.48;;
78834;SDS011;68187;42.682;23.352;2024-02-28T11:42:45;11.15;;;6.70;;
78834;SDS011;68187;42.682;23.352;2024-02-28T11:45:12;12.93;;;9.18;;
78834;SDS011;68187;42.682;23.352;2024-02-28T11:47:39;16.58;;;8.70;;
78834;SDS011;68187;42.682;23.352;2024-02-28T11:50:07;14.73;;;7.72;;
78834;SDS011;68187;42.682;23.352;2024-02-28T11:52:35;15.70;;;8.45;;
78834;SDS011;68187;42.682;23.352;2024-02-28T11:55:03;16.00;;;7.50;;
78834;SDS011;68187;42.682;23.352;2024-02-28T11:57:30;15.68;;;6.80;;
78834;SDS011;68187;42.682;23.352;2024-02-28T12:00:01;13.85;;;7.03;;
78834;SDS011;68187;42.682;23.352;2024-02-28T12:02:32;11.43;;;7.20;;
78834;SDS011;68187;42.682;23.352;2024-02-28T12:05:02;11.73;;;6.93;;
78834;SDS011;68187;42.682;23.352;2024-02-28T12:07:29;18.20;;;6.93;;
78834;SDS011;68187;42.682;23.352;2024-02-28T12:09:58;14.95;;;6.57;;
78834;SDS011;68187;42.682;23.352;2024-02-28T12:12:27;12.75;;;8.43;;
78834;SDS011;68187;42.682;23.352;2024-02-28T12:14:57;16.83;;;7.63;;
78834;SDS011;68187;42.682;23.352;2024-02-28T12:17:25;14.75;;;7.90;;
78834;SDS011;68187;42.682;23.352;2024-02-28T12:19:52;16.85;;;7.57;;
78834;SDS011;68187;42.682;23.352;2024-02-28T12:22:19;15.45;;;8.85;;
78834;SDS011;68187;42.682;23.352;2024-02-28T12:24:46;14.32;;;8.23;;
78834;SDS011;68187;42.682;23.352;2024-02-28T12:27:14;12.15;;;8.10;;
78834;SDS011;68187;42.682;23.352;2024-02-28T12:29:41;14.95;;;8.55;;
78834;SDS011;68187;42.682;23.352;2024-02-28T12:32:08;16.15;;;8.45;;
78834;SDS011;68187;42.682;23.352;2024-02-28T12:34:36;12.82;;;7.43;;
78834;SDS011;68187;42.682;23.352;2024-02-28T12:37:03;12.75;;;6.40;;
78834;SDS011;68187;42.682;23.352;2024-02-28T12:39:30;14.73;;;6.53;;
78834;SDS011;68187;42.682;23.352;2024-02-28T12:41:59;11.93;;;6.32;;
78834;SDS011;68187;42.682;23.352;2024-02-28T12:44:28;14.52;;;6.15;;
78834;SDS011;68187;42.682;23.352;2024-02-28T12:46:55;12.05;;;6.20;;
78834;SDS011;68187;42.682;23.352;2024-02-28T12:49:22;18.48;;;8.25;;
78834;SDS011;68187;42.682;23.352;2024-02-28T12:51:49;12.48;;;6.53;;
78834;SDS011;68187;42.682;23.352;2024-02-28T12:54:16;8.77;;;6.22;;
78834;SDS011;68187;42.682;23.352;2024-02-28T12:56:44;12.27;;;6.65;;
78834;SDS011;68187;42.682;23.352;2024-02-28T12:59:11;12.18;;;7.57;;
78834;SDS011;68187;42.682;23.352;2024-02-28T13:01:40;10.98;;;5.47;;
78834;SDS011;68187;42.682;23.352;2024-02-28T13:04:08;12.68;;;6.78;;
78834;SDS011;68187;42.682;23.352;2024-02-28T13:06:34;10.05;;;5.32;;
78834;SDS011;68187;42.682;23.352;2024-02-28T13:09:01;15.57;;;9.10;;
78834;SDS011;68187;42.682;23.352;2024-02-28T13:11:28;11.05;;;7.15;;
78834;SDS011;68187;42.682;23.352;2024-02-28T13:13:55;12.80;;;6.45;;
78834;SDS011;68187;42.682;23.352;2024-02-28T13:16:22;10.48;;;6.45;;
78834;SDS011;68187;42.682;23.352;2024-02-28T13:18:50;10.10;;;5.93;;
78834;SDS011;68187;42.682;23.352;2024-02-28T13:21:17;9.63;;;6.15;;
78834;SDS011;68187;42.682;23.352;2024-02-28T13:23:44;14.20;;;5.88;;
78834;SDS011;68187;42.682;23.352;2024-02-28T13:26:11;12.88;;;7.05;;
78834;SDS011;68187;42.682;23.352;2024-02-28T13:28:42;11.25;;;5.30;;
78834;SDS011;68187;42.682;23.352;2024-02-28T13:31:09;11.73;;;5.30;;
78834;SDS011;68187;42.682;23.352;2024-02-28T13:33:36;9.18;;;5.00;;
78834;SDS011;68187;42.682;23.352;2024-02-28T13:36:05;12.52;;;6.43;;
78834;SDS011;68187;42.682;23.352;2024-02-28T13:38:33;9.57;;;6.88;;
78834;SDS011;68187;42.682;23.352;2024-02-28T13:41:00;9.20;;;4.95;;
78834;SDS011;68187;42.682;23.352;2024-02-28T13:43:27;9.93;;;4.78;;
78834;SDS011;68187;42.682;23.352;2024-02-28T13:45:54;10.88;;;6.82;;
78834;SDS011;68187;42.682;23.352;2024-02-28T13:48:25;9.57;;;5.80;;
78834;SDS011;68187;42.682;23.352;2024-02-28T13:50:54;13.05;;;6.20;;
78834;SDS011;68187;42.682;23.352;2024-02-28T13:53:22;10.60;;;5.65;;
78834;SDS011;68187;42.682;23.352;2024-02-28T13:55:50;10.07;;;6.95;;
78834;SDS011;68187;42.682;23.352;2024-02-28T13:58:17;9.52;;;5.30;;
78834;SDS011;68187;42.682;23.352;2024-02-28T14:00:44;9.52;;;5.82;;
78834;SDS011;68187;42.682;23.352;2024-02-28T14:03:12;9.43;;;5.43;;
78834;SDS011;68187;42.682;23.352;2024-02-28T14:05:40;13.90;;;4.68;;
78834;SDS011;68187;42.682;23.352;2024-02-28T14:08:07;9.93;;;5.00;;
78834;SDS011;68187;42.682;23.352;2024-02-28T14:10:35;11.48;;;4.53;;
78834;SDS011;68187;42.682;23.352;2024-02-28T14:13:03;9.93;;;3.60;;
78834;SDS011;68187;42.682;23.352;2024-02-28T14:15:30;9.25;;;3.92;;